Weather observations for the past three days for
Pinehurst/Southern Pines, Moore County Airport
Imperial (Metric)
Date Time (edt) Wind (mph) Vis. (mi.) Weather Sky Cond. Temperature (ºF) Relative Humidity Wind Chill (°F) Heat Index (°F) Pressure Precipitation (in)
Air Dwpt 6 hour altimeter (in) sea level (mb) 1 hr 3 hr 6 hr
Max. Min.
06 07:56 SW 12 10.00 Fair CLR 64 55.9 64.9 62.1 75% 29.98 1015.5
06 06:56 SW 12 10.00 Fair CLR 63 55 76% 29.96 1014.9
06 05:56 S 14 10.00 Mostly Cloudy BKN100 63 55 76% 29.96 1014.6
06 04:56 SW 10 10.00 Fair CLR 62.1 55 78% 29.98 1015.6
06 03:56 SW 9 10.00 Fair CLR 62.1 55 78% 29.98 1015.6
06 02:56 S 9 10.00 Fair CLR 62.1 55 78% 29.98 1015.4
06 01:56 S 10 10.00 Fair CLR 63 55.9 75 63 78% 30 1016.0
06 00:56 S 14 10.00 Fair CLR 64 55.9 75% 30 1016.2
05 23:56 S 13 10.00 Fair CLR 64.9 55.9 73% 30.01 1016.4
05 22:56 S 13 G 20 10.00 Fair CLR 66.9 55 66% 30.02 1016.8
05 21:56 S 13 10.00 Fair CLR 69.1 55 61% 30 1016.3
05 20:56 S 12 10.00 Fair CLR 72 55 55% 29.98 1015.5
05 19:56 S 10 10.00 Fair CLR 75 50 82.9 75 42% 78 29.96 1014.8
05 18:56 S 12 10.00 Fair CLR 78.1 48.9 36% 79 29.96 1014.6
05 17:56 S 16 10.00 A Few Clouds FEW070 80.1 50 35% 80 29.97 1015.0
05 16:56 S 15 10.00 Partly Cloudy SCT070 80.1 48 33% 79 29.97 1014.9
05 15:56 SW 15 G 22 10.00 Fair CLR 80.1 48 33% 79 29.98 1015.6
05 14:56 SW 16 G 23 10.00 A Few Clouds FEW070 82 48 31% 81 30.01 1016.5
05 13:56 S 9 G 21 10.00 Partly Cloudy SCT060 78.1 50 80.1 62.1 37% 79 30.03 1017.0
05 12:56 S 15 G 21 10.00 Fair CLR 78.1 50 37% 79 30.04 1017.4
05 11:56 S 7 G 17 10.00 Fair CLR 75.9 53.1 45% 78 30.06 1018.2
05 10:56 SW 14 10.00 Fair CLR 72 53.1 52% 30.07 1018.3
05 09:56 SW 16 10.00 Fair CLR 70 53.1 55% 30.06 1018.1
05 08:56 SW 9 10.00 Fair CLR 66 53.1 63% 30.06 1018.1
05 07:56 SW 9 10.00 Fair CLR 61 51.1 62.1 55 70% 30.05 1017.9
05 06:56 SW 8 10.00 Fair CLR 55.9 50 81% 30.04 1017.4
05 05:56 SW 7 10.00 Fair CLR 55.9 48.9 77% 30.02 1016.8
05 04:56 SW 8 10.00 Fair CLR 57.9 48.9 72% 30.02 1016.8
05 03:56 SW 7 10.00 Fair CLR 59 48.9 69% 30.01 1016.4
05 02:56 SW 12 G 17 10.00 Fair CLR 60.1 48.9 67% 30 1016.2
05 01:56 S 13 10.00 Fair CLR 62.1 48.9 73.9 62.1 62% 30 1016.2
05 00:56 S 10 10.00 Fair CLR 63 48.9 60% 30.02 1016.7
04 23:56 S 12 10.00 Fair CLR 64 50 60% 30.02 1016.6
04 22:56 S 13 10.00 Fair CLR 66 50 56% 30.02 1016.6
04 21:56 S 12 10.00 Fair CLR 68 46.9 47% 30 1016.2
04 20:56 S 8 10.00 Fair CLR 70 42.1 37% 29.98 1015.6
04 19:56 S 10 10.00 Fair CLR 73.9 41 81 73.9 31% 29.97 1015.0
04 18:56 S 12 10.00 Fair CLR 77 39.9 26% 77 29.95 1014.3
04 17:56 SW 13 10.00 Fair CLR 80.1 37 21% 79 29.95 1014.3
04 16:56 SW 9 10.00 Fair CLR 81 35.1 19% 79 29.95 1014.4
04 15:56 SW 8 10.00 Fair CLR 81 36 20% 79 29.97 1014.9
04 14:56 SW 14 G 18 10.00 Fair CLR 80.1 36 20% 79 29.98 1015.4
04 13:56 W 9 10.00 Fair CLR 78.1 32 78.1 55.9 19% 77 30 1016.2
04 12:56 NW 9 10.00 Fair CLR 75.9 34 22% 77 30.03 1017.2
04 11:56 SW 9 10.00 Fair CLR 73.9 37 26% 30.05 1017.9
04 10:56 SW 9 10.00 Fair CLR 71.1 42.1 35% 30.06 1018.2
04 09:56 Vrbl 7 10.00 A Few Clouds FEW002 64.9 46 51% 30.06 1018.4
04 08:56 Vrbl 7 10.00 Fair CLR 61 46.9 60% 30.06 1018.1
04 07:56 SW 9 10.00 Fair CLR 55.9 48.9 55.9 50 77% 30.05 1018.1
04 06:56 SW 7 10.00 Fair CLR 51.1 48 89% 30.05 1017.9
04 05:56 SW 8 10.00 Fair CLR 51.1 48 89% 30.06 1018.4
04 04:56 SW 10 10.00 Fair CLR 52 48 86% 30.05 1018.0
04 03:56 SW 12 10.00 Fair CLR 53.1 46.9 80% 30.05 1018.0
04 02:56 SW 10 10.00 Fair CLR 53.1 46 77% 30.06 1018.4
04 01:56 S 16 10.00 Fair CLR 54 44.1 60.1 45 69% 30.05 1018.0
04 00:56 S 7 10.00 Fair CLR 46.9 39.9 77% 44 30.07 1018.6
03 23:56 Calm 10.00 Fair CLR 46.9 37.9 71% 30.07 1018.7
03 22:56 Calm 10.00 Fair CLR 50 39 66% 30.06 1018.5
03 21:56 Calm 10.00 Fair CLR 50 39.9 68% 30.06 1018.2
03 19:56 Calm 10.00 Fair CLR 60.1 39 69.1 60.1 46% 30.02 1017.0
03 18:56 W 5 10.00 Fair CLR 66.9 28.9 24% 30.02 1017.0
03 17:56 NW 6 10.00 Fair CLR 69.1 30.9 24% 30.02 1017.0
03 16:56 NW 8 10.00 Fair CLR 68 30 24% 30.02 1017.0
03 15:56 W 9 10.00 Fair CLR 68 30 24% 30.04 1017.9
03 14:56 W 9 10.00 Fair CLR 66.9 28.9 24% 30.07 1018.9
03 13:56 NW 12 G 17 10.00 Fair CLR 64 33.1 64 46.9 32% 30.08 1019.2
03 12:56 Vrbl 7 10.00 Fair CLR 63 34 34% 30.11 1020.0
03 11:56 Vrbl 3 10.00 Fair CLR 61 33.1 35% 30.13 1020.9
03 10:56 N 9 10.00 Fair CLR 57 33.1 41% 30.13 1020.9
03 09:56 NW 7 G 16 10.00 Fair CLR 55.9 33.1 42% 30.13 1020.8
03 08:56 NW 7 10.00 Fair CLR 52 39 61% 30.13 1020.7
Date Time (edt) Wind (mph) Vis. (mi.) Weather Sky Cond. Air Dwpt Max. Min. Relative Humidity Wind Chill (°F) Heat Index (°F) altimeter (in) sea level (mb) 1 hr 3 hr 6 hr
6 hour
Temperature (ºF) Pressure Precipitation (in)